Time;durP1;ratioP1;P1;durP2;ratioP2;P2;SDS_P1;SDS_P2;PMS_P1;PMS_P2;Temp;Humidity;BMP_temperature;BMP_pressure;BME280_temperature;BME280_humidity;BME280_pressure;Samples;Min_cycle;Max_cycle;Signal;HPM_P1;HPM_P2
2021/07/08 00:00:21;;;;;;;4.63;4.22;;;16.20;99.90;;;;;;5033660;28;20037;-50
2021/07/08 00:02:50;;;;;;;5.53;3.92;;;16.30;99.90;;;;;;5033460;28;20045;-49
2021/07/08 00:05:17;;;;;;;6.80;5.10;;;16.20;99.90;;;;;;5033646;28;20095;-55
2021/07/08 00:07:43;;;;;;;4.95;4.18;;;16.30;99.90;;;;;;5033636;28;20025;-50
2021/07/08 00:10:15;;;;;;;9.68;3.67;;;16.20;99.90;;;;;;5032616;28;20063;-48
2021/07/08 00:12:41;;;;;;;4.15;3.50;;;16.20;99.90;;;;;;5033669;28;20060;-48
2021/07/08 00:15:16;;;;;;;4.78;4.28;;;16.20;99.90;;;;;;5032291;28;20476;-48
2021/07/08 00:17:42;;;;;;;3.53;3.22;;;16.10;99.90;;;;;;5033123;28;20064;-50
2021/07/08 00:20:11;;;;;;;6.22;4.03;;;16.10;99.90;;;;;;5033310;28;20046;-50
2021/07/08 00:22:37;;;;;;;3.90;3.60;;;16.10;99.90;;;;;;5033202;28;20100;-50
2021/07/08 00:25:12;;;;;;;3.92;3.63;;;16.00;99.90;;;;;;5032341;28;20083;-51
2021/07/08 00:27:39;;;;;;;4.57;4.18;;;15.90;99.90;;;;;;5033046;28;20029;-52
2021/07/08 00:30:07;;;;;;;6.35;4.35;;;15.90;99.90;;;;;;5033265;28;20045;-49
2021/07/08 00:32:32;;;;;;;4.25;3.85;;;15.80;99.90;;;;;;5032985;28;20030;-49
2021/07/08 00:34:58;;;;;;;6.97;4.72;;;15.70;99.90;;;;;;5032997;28;20107;-51
2021/07/08 00:37:24;;;;;;;8.07;4.15;;;15.70;99.90;;;;;;5032779;28;20116;-51
2021/07/08 00:39:49;;;;;;;6.00;4.18;;;15.60;99.90;;;;;;5033015;28;20018;-49
2021/07/08 00:42:15;;;;;;;6.57;5.03;;;15.60;99.90;;;;;;5030595;28;20048;-49
2021/07/08 00:44:40;;;;;;;5.60;4.45;;;15.50;99.90;;;;;;5033031;28;20033;-50
2021/07/08 00:47:06;;;;;;;6.00;4.68;;;15.50;99.90;;;;;;5032726;28;20045;-48
2021/07/08 00:49:32;;;;;;;4.22;3.83;;;15.40;99.90;;;;;;5033184;28;20037;-50
2021/07/08 00:51:58;;;;;;;5.60;4.95;;;15.40;99.90;;;;;;5033325;28;20030;-54
2021/07/08 00:54:24;;;;;;;7.90;5.60;;;15.40;99.90;;;;;;5033789;28;20420;-52
2021/07/08 00:56:50;;;;;;;7.15;4.57;;;15.30;99.90;;;;;;5032563;28;20065;-49
2021/07/08 00:59:15;;;;;;;5.00;4.60;;;15.30;99.90;;;;;;5033653;28;20151;-48
2021/07/08 01:01:41;;;;;;;4.72;4.32;;;15.20;99.90;;;;;;5033379;28;20397;-50
2021/07/08 01:04:07;;;;;;;5.07;4.57;;;15.10;99.90;;;;;;5033437;28;20029;-49
2021/07/08 01:06:34;;;;;;;5.35;4.85;;;15.10;99.90;;;;;;5033323;28;20022;-50
2021/07/08 01:09:00;;;;;;;5.45;4.65;;;15.10;99.90;;;;;;5033533;28;20025;-50
2021/07/08 01:11:27;;;;;;;7.07;6.10;;;15.10;99.90;;;;;;5032278;28;20032;-50
2021/07/08 01:13:53;;;;;;;5.05;4.65;;;15.00;99.90;;;;;;5033027;28;20034;-47
2021/07/08 01:16:19;;;;;;;4.80;4.40;;;15.00;99.90;;;;;;5033194;28;20065;-47
2021/07/08 01:18:44;;;;;;;6.57;4.47;;;15.00;99.90;;;;;;5033301;28;20029;-48
2021/07/08 01:21:27;;;;;;;5.18;4.55;;;15.00;99.90;;;;;;5032852;28;20041;-51
2021/07/08 01:23:54;;;;;;;4.22;3.80;;;14.90;99.90;;;;;;5033121;28;20025;-51
2021/07/08 01:26:21;;;;;;;5.70;5.07;;;14.90;99.90;;;;;;5032229;28;20397;-52
2021/07/08 01:28:52;;;;;;;4.90;4.43;;;14.90;99.90;;;;;;5032546;28;20029;-49
2021/07/08 01:31:20;;;;;;;5.18;4.68;;;14.80;99.90;;;;;;5032860;28;20037;-53
2021/07/08 01:33:46;;;;;;;4.55;4.15;;;14.80;99.90;;;;;;5033084;28;20031;-48
2021/07/08 01:36:13;;;;;;;5.45;4.95;;;14.80;99.90;;;;;;5032593;28;20798;-51
2021/07/08 01:38:39;;;;;;;5.78;5.13;;;14.80;99.90;;;;;;5033034;28;20057;-47
2021/07/08 01:41:05;;;;;;;5.00;3.85;;;14.80;99.90;;;;;;5031794;28;20029;-52
2021/07/08 01:43:38;;;;;;;5.30;4.80;;;14.80;99.90;;;;;;5032994;28;20037;-48
2021/07/08 01:46:09;;;;;;;6.72;4.38;;;14.80;99.90;;;;;;5032522;28;20060;-49
2021/07/08 01:48:35;;;;;;;4.60;3.72;;;14.80;99.90;;;;;;5032881;28;20030;-50
2021/07/08 01:51:04;;;;;;;4.97;4.47;;;14.80;99.90;;;;;;5032349;28;20117;-48
2021/07/08 01:53:30;;;;;;;4.20;3.90;;;14.80;99.90;;;;;;5032795;28;20097;-49
2021/07/08 01:55:57;;;;;;;4.70;3.70;;;14.70;99.90;;;;;;5031774;28;20113;-53
2021/07/08 01:58:23;;;;;;;4.55;3.50;;;14.80;99.90;;;;;;5032654;28;20025;-52
2021/07/08 02:00:50;;;;;;;4.47;4.07;;;14.80;99.90;;;;;;5032533;28;20384;-48
2021/07/08 02:03:15;;;;;;;4.63;3.75;;;14.80;99.90;;;;;;5032368;28;20475;-51
2021/07/08 02:05:41;;;;;;;5.82;5.15;;;14.80;99.90;;;;;;5032550;28;20120;-48
2021/07/08 02:08:06;;;;;;;5.70;4.50;;;14.80;99.90;;;;;;5032359;28;20029;-49
2021/07/08 02:10:32;;;;;;;4.50;4.10;;;14.80;99.90;;;;;;5031539;28;20022;-51
2021/07/08 02:12:58;;;;;;;3.88;3.47;;;14.80;99.90;;;;;;5032073;28;20389;-53
2021/07/08 02:15:23;;;;;;;6.07;4.30;;;14.80;99.90;;;;;;5032330;28;20025;-47
2021/07/08 02:17:49;;;;;;;7.70;5.43;;;14.70;99.90;;;;;;5032423;28;20424;-48
2021/07/08 02:20:16;;;;;;;6.35;4.63;;;14.70;99.90;;;;;;5032157;28;20045;-48
2021/07/08 02:22:42;;;;;;;6.43;5.20;;;14.70;99.90;;;;;;5032335;28;20036;-48
2021/07/08 02:25:09;;;;;;;4.57;4.13;;;14.60;99.90;;;;;;5031417;28;20022;-49
2021/07/08 02:27:37;;;;;;;4.72;4.32;;;14.60;99.90;;;;;;5032299;28;20495;-54
2021/07/08 02:30:09;;;;;;;4.32;4.00;;;14.50;99.90;;;;;;5032274;28;20117;-48
2021/07/08 02:32:35;;;;;;;7.93;4.90;;;14.50;99.90;;;;;;5032196;28;20076;-48
2021/07/08 02:35:00;;;;;;;5.65;4.20;;;14.50;99.90;;;;;;5032323;28;20025;-48
2021/07/08 02:37:26;;;;;;;4.55;4.15;;;14.50;99.90;;;;;;5032044;28;20469;-51
2021/07/08 02:39:51;;;;;;;6.90;4.30;;;14.40;99.90;;;;;;5032799;28;20029;-54
2021/07/08 02:42:17;;;;;;;3.60;3.30;;;14.40;99.90;;;;;;5034972;28;20037;-50
2021/07/08 02:44:42;;;;;;;3.70;3.40;;;14.40;99.90;;;;;;5034287;28;20075;-49
2021/07/08 02:47:08;;;;;;;5.32;3.55;;;14.30;99.90;;;;;;5035933;28;20029;-51
2021/07/08 02:49:33;;;;;;;4.25;3.83;;;14.30;99.90;;;;;;5036160;28;20493;-49
2021/07/08 02:51:59;;;;;;;6.20;3.85;;;14.20;99.90;;;;;;5035673;28;20469;-50
2021/07/08 02:54:24;;;;;;;5.03;3.58;;;14.20;99.90;;;;;;5036020;28;20048;-51
2021/07/08 02:56:49;;;;;;;4.53;4.13;;;14.20;99.90;;;;;;5034951;28;20029;-49
2021/07/08 02:59:15;;;;;;;3.15;2.90;;;14.10;99.90;;;;;;5035702;28;20397;-49
2021/07/08 03:01:40;;;;;;;4.30;3.90;;;14.10;99.90;;;;;;5035589;28;20100;-48
2021/07/08 03:04:06;;;;;;;5.43;4.32;;;14.10;99.90;;;;;;5035762;28;20124;-49
2021/07/08 03:06:33;;;;;;;5.38;3.63;;;14.10;99.90;;;;;;5035572;28;20029;-51
2021/07/08 03:08:59;;;;;;;6.32;5.43;;;14.10;99.90;;;;;;5035713;28;20180;-50
2021/07/08 03:11:24;;;;;;;6.78;5.35;;;14.10;99.90;;;;;;5034663;28;20116;-53
2021/07/08 03:13:50;;;;;;;7.30;5.60;;;14.20;99.90;;;;;;5035141;28;20603;-50
2021/07/08 03:16:16;;;;;;;9.45;5.63;;;14.20;99.90;;;;;;5035551;28;20084;-49
2021/07/08 03:18:41;;;;;;;7.32;5.68;;;14.30;99.90;;;;;;5035488;28;20033;-51
2021/07/08 03:21:07;;;;;;;8.65;4.93;;;14.30;99.90;;;;;;5035480;28;20473;-48
2021/07/08 03:23:34;;;;;;;6.93;5.38;;;14.30;99.90;;;;;;5035333;28;20112;-51
2021/07/08 03:26:00;;;;;;;8.00;5.43;;;14.30;99.90;;;;;;5033302;28;20032;-50
2021/07/08 03:28:26;;;;;;;6.28;5.68;;;14.30;99.90;;;;;;5035258;28;20116;-50
2021/07/08 03:30:51;;;;;;;6.80;5.05;;;14.30;99.90;;;;;;5035240;28;20048;-51
2021/07/08 03:33:17;;;;;;;6.80;5.03;;;14.40;99.90;;;;;;5035090;28;20072;-51
2021/07/08 03:35:42;;;;;;;4.95;4.55;;;14.40;99.90;;;;;;5034935;28;20029;-47
2021/07/08 03:38:08;;;;;;;5.57;5.07;;;14.40;99.90;;;;;;5034999;28;20021;-52
2021/07/08 03:40:34;;;;;;;4.60;4.18;;;14.50;99.90;;;;;;5034218;28;20396;-52
2021/07/08 03:43:00;;;;;;;5.28;4.50;;;14.50;99.90;;;;;;5034859;28;20025;-55
2021/07/08 03:45:26;;;;;;;5.63;5.07;;;14.50;99.90;;;;;;5035007;28;20075;-49
2021/07/08 03:47:52;;;;;;;5.53;4.97;;;14.60;99.90;;;;;;5034872;28;20037;-49
2021/07/08 03:50:18;;;;;;;5.80;4.65;;;14.60;99.90;;;;;;5034799;28;20488;-50
2021/07/08 03:52:44;;;;;;;4.75;3.55;;;14.60;99.90;;;;;;5034053;28;20025;-51
2021/07/08 03:55:13;;;;;;;4.63;4.22;;;14.70;99.90;;;;;;5033865;28;20112;-48
2021/07/08 03:57:58;;;;;;;5.57;3.78;;;14.70;99.90;;;;;;5034652;28;20033;-53
2021/07/08 04:00:35;;;;;;;6.57;3.97;;;14.80;99.90;;;;;;5034669;28;20484;-51
2021/07/08 04:03:07;;;;;;;4.13;3.72;;;14.80;99.90;;;;;;5034465;28;20132;-48
2021/07/08 04:05:34;;;;;;;4.00;3.60;;;14.90;99.90;;;;;;5034724;28;20028;-52
2021/07/08 04:08:00;;;;;;;4.57;3.25;;;15.00;99.90;;;;;;5034372;28;20032;-52
2021/07/08 04:10:27;;;;;;;5.88;4.30;;;15.10;99.90;;;;;;5033550;28;20028;-52
2021/07/08 04:12:53;;;;;;;5.18;4.68;;;15.30;99.90;;;;;;5034237;28;20028;-49
2021/07/08 04:15:19;;;;;;;6.00;4.30;;;15.50;99.90;;;;;;5034539;28;20013;-51
2021/07/08 04:17:45;;;;;;;7.50;5.25;;;15.70;99.90;;;;;;5034452;28;20518;-48
2021/07/08 04:20:14;;;;;;;5.22;4.70;;;16.10;99.90;;;;;;5034385;28;20025;-52
2021/07/08 04:22:39;;;;;;;5.53;3.92;;;16.80;99.90;;;;;;5034239;28;20388;-53
2021/07/08 04:25:07;;;;;;;4.35;3.97;;;17.40;99.90;;;;;;5031939;28;20025;-49
2021/07/08 04:27:33;;;;;;;4.75;3.58;;;18.20;99.90;;;;;;5034187;28;20029;-49
2021/07/08 04:29:58;;;;;;;3.63;3.33;;;19.30;99.90;;;;;;5034318;28;20053;-47
2021/07/08 04:32:24;;;;;;;3.67;3.38;;;20.50;99.90;;;;;;5033785;28;20026;-49
2021/07/08 04:34:50;;;;;;;3.20;2.90;;;21.70;99.90;;;;;;5034153;28;20071;-48
2021/07/08 04:37:15;;;;;;;4.00;2.58;;;22.70;99.90;;;;;;5033715;28;20022;-48
2021/07/08 04:39:40;;;;;;;5.03;2.60;;;23.60;99.90;;;;;;5033917;28;20021;-52
2021/07/08 04:42:07;;;;;;;2.92;2.72;;;23.80;99.90;;;;;;5033035;28;20492;-50
2021/07/08 04:44:33;;;;;;;3.78;2.88;;;24.60;99.90;;;;;;5033799;28;20167;-49
2021/07/08 04:47:01;;;;;;;2.90;2.70;;;25.40;99.90;;;;;;5033976;28;20504;-51
2021/07/08 04:49:27;;;;;;;3.90;3.20;;;26.30;99.90;;;;;;5033671;28;20097;-49
2021/07/08 04:51:53;;;;;;;2.47;2.20;;;27.50;99.90;;;;;;5033721;28;20580;-48
2021/07/08 04:54:18;;;;;;;5.53;2.65;;;28.30;99.90;;;;;;5033507;28;20057;-49
2021/07/08 04:56:43;;;;;;;2.50;2.22;;;29.00;99.90;;;;;;5032772;28;20029;-50
2021/07/08 04:59:09;;;;;;;3.30;2.45;;;29.10;99.90;;;;;;5033499;28;20029;-50
2021/07/08 05:01:35;;;;;;;2.22;2.03;;;28.70;99.90;;;;;;5033348;28;20021;-50
2021/07/08 05:04:00;;;;;;;2.30;2.10;;;28.80;99.90;;;;;;5032570;28;20037;-53
2021/07/08 05:06:27;;;;;;;2.50;2.22;;;29.10;99.90;;;;;;5033312;28;20021;-54
2021/07/08 05:08:52;;;;;;;2.38;2.17;;;29.90;99.90;;;;;;5033367;28;20117;-52
2021/07/08 05:11:18;;;;;;;2.30;2.10;;;30.00;99.90;;;;;;5032260;28;20112;-53
2021/07/08 05:13:43;;;;;;;2.92;2.15;;;29.60;99.90;;;;;;5033047;28;20021;-52
2021/07/08 05:16:09;;;;;;;3.58;2.58;;;29.10;99.90;;;;;;5033401;28;20036;-49
2021/07/08 05:18:34;;;;;;;2.13;1.92;;;28.40;99.90;;;;;;5033228;28;20029;-52
2021/07/08 05:21:00;;;;;;;2.60;2.03;;;27.70;99.90;;;;;;5033114;28;20477;-50
2021/07/08 05:23:27;;;;;;;2.60;2.30;;;27.40;99.90;;;;;;5031784;28;20048;-53
2021/07/08 05:25:53;;;;;;;2.83;2.20;;;27.70;99.90;;;;;;5032234;28;20377;-50
2021/07/08 05:28:19;;;;;;;2.50;2.30;;;28.50;99.90;;;;;;5032987;28;20032;-52
2021/07/08 05:30:44;;;;;;;2.42;2.20;;;29.70;99.90;;;;;;5033104;28;20060;-49
2021/07/08 05:33:10;;;;;;;2.80;2.60;;;30.30;99.90;;;;;;5033054;28;20036;-49
2021/07/08 05:35:36;;;;;;;5.47;2.58;;;30.70;99.90;;;;;;5032735;28;20029;-47
2021/07/08 05:38:02;;;;;;;2.42;2.10;;;31.30;99.90;;;;;;5032989;28;20385;-53
2021/07/08 05:40:28;;;;;;;5.05;2.55;;;31.50;99.90;;;;;;5031719;28;20068;-51
2021/07/08 05:42:54;;;;;;;2.17;2.03;;;30.50;99.90;;;;;;5032915;28;20528;-46
2021/07/08 05:45:20;;;;;;;3.50;2.03;;;29.30;99.90;;;;;;5031593;28;20445;-50
2021/07/08 05:47:46;;;;;;;2.53;2.33;;;28.60;99.90;;;;;;5032735;28;20095;-49
2021/07/08 05:50:12;;;;;;;2.95;2.30;;;28.00;99.90;;;;;;5029463;28;20094;-51
2021/07/08 05:52:37;;;;;;;4.28;2.70;;;27.30;99.90;;;;;;5032291;28;20045;-51
2021/07/08 05:55:04;;;;;;;3.78;2.28;;;26.60;99.90;;;;;;5031527;28;20457;-48
2021/07/08 05:57:29;;;;;;;3.45;2.15;;;25.70;99.90;;;;;;5032414;28;20022;-50
2021/07/08 05:59:55;;;;;;;2.90;2.45;;;25.10;99.90;;;;;;5032570;28;20028;-46
2021/07/08 06:02:21;;;;;;;4.60;2.40;;;24.70;99.90;;;;;;5031858;28;20053;-49
2021/07/08 06:04:46;;;;;;;3.80;2.63;;;24.20;99.90;;;;;;5032286;28;20095;-52
2021/07/08 06:07:12;;;;;;;2.40;2.20;;;23.70;99.90;;;;;;5032425;28;20040;-48
2021/07/08 06:09:37;;;;;;;2.35;2.15;;;23.20;99.90;;;;;;5032339;28;20057;-51
2021/07/08 06:12:03;;;;;;;2.83;2.28;;;22.80;99.90;;;;;;5031307;28;20469;-50
2021/07/08 06:14:29;;;;;;;2.60;2.40;;;22.50;99.90;;;;;;5032334;28;20029;-51
2021/07/08 06:16:54;;;;;;;5.10;2.40;;;22.30;99.90;;;;;;5038784;28;20034;-48
2021/07/08 06:19:20;;;;;;;4.22;2.20;;;22.00;99.90;;;;;;5038595;28;20060;-48
2021/07/08 06:21:48;;;;;;;3.20;2.15;;;21.80;99.90;;;;;;5037527;28;20104;-48
2021/07/08 06:24:14;;;;;;;3.83;2.33;;;21.60;99.90;;;;;;5038946;28;20025;-46
2021/07/08 06:26:39;;;;;;;2.67;2.15;;;21.40;99.90;;;;;;5037666;28;20087;-49
2021/07/08 06:29:05;;;;;;;4.00;2.58;;;21.30;99.90;;;;;;5036240;28;20033;-51
2021/07/08 06:31:30;;;;;;;3.15;2.65;;;21.20;99.90;;;;;;5038399;28;20026;-50
2021/07/08 06:33:56;;;;;;;2.75;2.47;;;21.10;99.90;;;;;;5038534;28;20523;-51
2021/07/08 06:36:21;;;;;;;4.05;3.20;;;21.10;99.90;;;;;;5038547;28;20033;-54
2021/07/08 06:38:47;;;;;;;3.80;2.67;;;21.00;99.90;;;;;;5038556;28;20029;-48
2021/07/08 06:41:12;;;;;;;2.78;2.47;;;21.10;99.90;;;;;;5037645;28;20033;-52
2021/07/08 06:43:37;;;;;;;4.05;2.70;;;21.10;99.90;;;;;;5038499;28;20043;-52
2021/07/08 06:46:03;;;;;;;3.47;2.92;;;21.20;99.90;;;;;;5038569;28;20033;-53
2021/07/08 06:48:29;;;;;;;4.30;2.90;;;21.30;99.90;;;;;;5038382;28;20057;-54
2021/07/08 06:50:54;;;;;;;6.47;2.85;;;21.20;99.90;;;;;;5038404;28;20037;-50
2021/07/08 06:53:20;;;;;;;4.72;2.50;;;21.20;99.90;;;;;;5038462;28;20021;-49
2021/07/08 06:55:45;;;;;;;5.97;3.30;;;21.30;99.90;;;;;;5037550;28;20029;-51
2021/07/08 06:58:11;;;;;;;3.25;2.85;;;21.30;99.90;;;;;;5038366;28;20027;-54
2021/07/08 07:00:38;;;;;;;3.35;2.55;;;21.20;99.90;;;;;;5038371;28;20112;-53
2021/07/08 07:03:05;;;;;;;4.88;3.45;;;21.10;99.90;;;;;;5038473;28;20045;-52
2021/07/08 07:05:32;;;;;;;3.30;2.92;;;21.00;99.90;;;;;;5038400;28;20104;-49
2021/07/08 07:07:58;;;;;;;5.32;3.08;;;20.80;99.90;;;;;;5038753;28;20042;-51
2021/07/08 07:10:25;;;;;;;3.17;2.88;;;20.60;99.90;;;;;;5037568;28;20021;-53
2021/07/08 07:12:53;;;;;;;3.35;2.85;;;20.50;99.90;;;;;;5038422;28;20056;-53
2021/07/08 07:15:21;;;;;;;4.57;3.35;;;20.50;99.90;;;;;;5038381;28;20025;-51
2021/07/08 07:17:47;;;;;;;6.15;2.63;;;20.40;99.90;;;;;;5038406;28;20018;-51
2021/07/08 07:20:15;;;;;;;4.07;3.17;;;20.40;99.90;;;;;;5038429;28;20097;-48
2021/07/08 07:22:45;;;;;;;3.78;3.00;;;20.30;99.90;;;;;;5038280;28;20029;-48
2021/07/08 07:25:12;;;;;;;4.30;2.80;;;20.30;99.90;;;;;;5037388;28;20485;-49
2021/07/08 07:27:38;;;;;;;3.58;2.95;;;20.20;99.90;;;;;;5032795;28;20108;-49
2021/07/08 07:30:07;;;;;;;3.95;3.35;;;20.20;99.90;;;;;;5035195;28;20108;-53
2021/07/08 07:32:33;;;;;;;2.83;2.53;;;20.20;99.90;;;;;;5035043;28;20026;-50
2021/07/08 07:34:59;;;;;;;3.25;2.95;;;20.20;99.90;;;;;;5031034;28;20416;-54
2021/07/08 07:37:25;;;;;;;5.95;3.97;;;20.20;99.90;;;;;;5034866;28;20417;-54
2021/07/08 07:39:51;;;;;;;3.97;3.20;;;20.20;99.90;;;;;;5034034;28;20033;-54
2021/07/08 07:42:17;;;;;;;5.93;4.20;;;20.10;99.90;;;;;;5034672;28;20021;-49
2021/07/08 07:44:47;;;;;;;4.30;3.85;;;20.10;99.90;;;;;;5034701;28;20029;-54
2021/07/08 07:47:13;;;;;;;4.15;3.63;;;20.00;99.90;;;;;;5034661;28;20033;-54
2021/07/08 07:49:38;;;;;;;8.82;3.95;;;20.00;99.90;;;;;;5034677;28;20108;-48
2021/07/08 07:52:05;;;;;;;6.93;4.53;;;20.10;99.90;;;;;;5034717;28;20165;-49
2021/07/08 07:54:33;;;;;;;5.68;4.10;;;20.10;99.90;;;;;;5034630;28;20025;-48
2021/07/08 07:57:01;;;;;;;5.18;3.65;;;20.10;99.90;;;;;;5033876;28;20083;-49
2021/07/08 07:59:26;;;;;;;6.68;6.07;;;20.00;99.90;;;;;;5031922;28;20071;-52
2021/07/08 08:01:52;;;;;;;8.57;6.25;;;20.00;99.90;;;;;;5034328;28;20049;-51
2021/07/08 08:04:17;;;;;;;8.40;5.45;;;19.90;99.90;;;;;;5034548;28;20026;-51
2021/07/08 08:09:27;;;;;;;10.85;5.47;;;19.90;99.90;;;;;;5034344;28;20116;-51
2021/07/08 08:11:53;;;;;;;4.97;4.47;;;20.00;99.90;;;;;;5033293;28;20112;-52
2021/07/08 08:14:19;;;;;;;4.95;4.45;;;20.00;99.90;;;;;;5033839;28;20495;-51
2021/07/08 08:16:46;;;;;;;6.90;5.57;;;20.10;99.90;;;;;;5034064;28;20029;-56
2021/07/08 08:19:11;;;;;;;5.28;4.60;;;20.10;99.90;;;;;;5034197;28;20036;-51
2021/07/08 08:21:37;;;;;;;5.07;4.53;;;20.30;99.90;;;;;;5034122;28;20022;-54
2021/07/08 08:24:03;;;;;;;5.68;4.63;;;20.40;99.90;;;;;;5034371;28;20029;-49
2021/07/08 08:26:28;;;;;;;7.60;5.90;;;20.50;99.90;;;;;;5033129;28;20029;-54
2021/07/08 08:28:54;;;;;;;7.93;6.10;;;20.50;99.90;;;;;;5034030;28;20400;-53
2021/07/08 08:31:19;;;;;;;8.77;6.30;;;20.60;99.90;;;;;;5034055;28;20087;-53
2021/07/08 08:33:45;;;;;;;5.70;5.20;;;20.60;99.90;;;;;;5034080;28;20028;-49
2021/07/08 08:36:11;;;;;;;6.28;4.22;;;20.70;99.90;;;;;;5034009;28;20097;-55
2021/07/08 08:38:36;;;;;;;4.32;3.92;;;20.70;99.90;;;;;;5033670;28;20107;-52
2021/07/08 08:41:02;;;;;;;4.05;3.65;;;20.80;99.90;;;;;;5032965;28;20037;-52
2021/07/08 08:43:28;;;;;;;4.78;3.30;;;20.80;99.90;;;;;;5033774;28;20026;-52
2021/07/08 08:45:53;;;;;;;3.03;2.78;;;20.90;99.90;;;;;;5033752;28;20032;-51
2021/07/08 08:48:19;;;;;;;4.07;2.90;;;21.00;99.90;;;;;;5033930;28;20052;-54
2021/07/08 08:50:48;;;;;;;2.72;2.20;;;21.00;99.90;;;;;;5033588;28;20026;-53
2021/07/08 08:53:15;;;;;;;2.95;2.65;;;21.10;99.90;;;;;;5033893;28;20118;-50
2021/07/08 08:55:42;;;;;;;3.35;2.60;;;21.20;99.90;;;;;;5032449;28;20029;-51
2021/07/08 08:58:11;;;;;;;3.45;2.97;;;21.20;99.90;;;;;;5033777;28;20027;-52
2021/07/08 09:01:07;;;;;;;3.40;3.10;;;21.20;99.90;;;;;;5033363;28;20079;-52
2021/07/08 09:03:34;;;;;;;3.10;2.80;;;21.20;99.90;;;;;;5028827;28;20052;-50
2021/07/08 09:06:11;;;;;;;3.03;2.65;;;21.30;99.90;;;;;;5033477;28;20623;-52
2021/07/08 09:08:45;;;;;;;4.40;2.35;;;21.30;99.90;;;;;;5033496;28;20060;-51
2021/07/08 09:11:21;;;;;;;2.67;2.28;;;21.40;99.90;;;;;;5032453;28;20048;-53
2021/07/08 09:14:06;;;;;;;4.72;2.70;;;21.50;99.90;;;;;;5033067;28;20033;-52
2021/07/08 09:16:38;;;;;;;2.05;1.85;;;21.50;99.90;;;;;;5033141;28;20026;-53
2021/07/08 09:19:21;;;;;;;4.13;2.10;;;21.60;99.90;;;;;;5033307;28;20025;-54
2021/07/08 09:21:52;;;;;;;3.95;2.75;;;21.70;99.90;;;;;;5033104;28;20104;-51
2021/07/08 09:24:31;;;;;;;2.03;1.83;;;21.60;99.90;;;;;;5012576;28;20162;-56
2021/07/08 09:27:08;;;;;;;7.35;2.75;;;21.50;99.90;;;;;;5012273;28;20076;-59
2021/07/08 09:29:48;;;;;;;3.90;2.22;;;21.40;99.90;;;;;;5010189;28;20071;-57
2021/07/08 09:32:22;;;;;;;2.58;2.08;;;21.20;99.90;;;;;;5032858;28;20029;-58
2021/07/08 09:34:53;;;;;;;3.10;2.67;;;21.10;99.90;;;;;;5032732;28;20021;-58
2021/07/08 09:37:27;;;;;;;3.92;2.65;;;21.00;99.90;;;;;;5032708;28;20110;-57
2021/07/08 09:39:56;;;;;;;5.95;2.78;;;21.00;99.90;;;;;;5031572;28;20096;-58
2021/07/08 09:42:38;;;;;;;2.60;2.38;;;21.00;99.90;;;;;;5031986;28;20504;-58
2021/07/08 09:45:21;;;;;;;3.75;2.47;;;20.90;99.90;;;;;;5030200;28;20095;-59
2021/07/08 09:47:48;;;;;;;2.47;2.13;;;21.00;99.90;;;;;;5030473;28;20024;-59
2021/07/08 09:50:33;;;;;;;4.22;2.40;;;21.10;99.90;;;;;;5031396;28;20468;-56
2021/07/08 09:53:14;;;;;;;4.72;2.90;;;21.20;99.90;;;;;;5029944;28;20087;-55
2021/07/08 09:58:31;;;;;;;2.88;2.60;;;21.30;99.90;;;;;;5030293;28;20481;-58
2021/07/08 10:01:08;;;;;;;3.63;2.45;;;21.30;99.90;;;;;;5031855;28;20049;-56
2021/07/08 10:03:34;;;;;;;4.10;2.83;;;21.40;99.90;;;;;;5030946;28;20416;-60
2021/07/08 10:06:00;;;;;;;5.18;3.17;;;21.40;99.90;;;;;;5032272;28;20088;-57
2021/07/08 10:08:26;;;;;;;3.22;2.50;;;21.30;99.90;;;;;;5032625;28;20469;-57
2021/07/08 10:10:51;;;;;;;5.55;3.13;;;21.30;99.90;;;;;;5031277;28;20025;-59
2021/07/08 10:13:18;;;;;;;3.95;3.05;;;21.20;99.90;;;;;;5032164;28;20026;-58
2021/07/08 10:15:44;;;;;;;3.28;2.92;;;21.20;99.90;;;;;;5032174;28;20101;-51
2021/07/08 10:18:12;;;;;;;3.63;2.45;;;21.30;99.90;;;;;;5032496;28;20032;-54
2021/07/08 10:20:38;;;;;;;4.53;3.47;;;21.30;99.90;;;;;;5032388;28;20037;-58
2021/07/08 10:23:05;;;;;;;7.47;3.55;;;21.30;99.90;;;;;;5029018;28;20044;-59
2021/07/08 10:25:31;;;;;;;4.05;3.08;;;21.20;99.90;;;;;;5031163;28;20393;-54
2021/07/08 10:27:58;;;;;;;4.30;2.78;;;21.20;99.90;;;;;;5032106;28;20026;-57
2021/07/08 10:30:25;;;;;;;3.40;3.10;;;21.20;99.90;;;;;;5032202;28;20049;-52
2021/07/08 10:32:58;;;;;;;3.63;3.33;;;21.10;99.90;;;;;;5031851;28;20029;-53
2021/07/08 10:35:45;;;;;;;6.35;3.13;;;21.10;99.90;;;;;;5031921;28;20021;-54
2021/07/08 10:38:36;;;;;;;3.45;2.80;;;21.10;99.90;;;;;;5031986;28;20022;-54
2021/07/08 10:41:22;;;;;;;3.30;2.97;;;21.10;99.90;;;;;;5030962;28;20049;-56
2021/07/08 10:43:48;;;;;;;3.67;2.63;;;21.30;99.90;;;;;;5021042;28;20420;-53
2021/07/08 10:46:15;;;;;;;4.97;3.20;;;21.50;99.90;;;;;;5030611;28;20030;-56
2021/07/08 10:48:42;;;;;;;2.88;2.58;;;21.60;99.90;;;;;;5032199;28;20485;-54
2021/07/08 10:51:14;;;;;;;5.40;2.92;;;21.70;99.90;;;;;;5031910;28;20136;-56
2021/07/08 10:53:42;;;;;;;5.30;2.95;;;21.80;99.90;;;;;;5032169;28;20381;-56
2021/07/08 10:56:09;;;;;;;4.18;3.33;;;21.90;99.90;;;;;;5031025;28;20380;-55
2021/07/08 10:58:54;;;;;;;5.28;2.90;;;21.90;99.90;;;;;;5032133;28;20021;-55
2021/07/08 11:01:27;;;;;;;2.85;2.60;;;21.90;99.90;;;;;;5032088;28;20021;-56
2021/07/08 11:03:57;;;;;;;5.60;2.85;;;21.80;99.90;;;;;;5035346;28;20057;-54
2021/07/08 11:06:26;;;;;;;2.55;2.35;;;21.80;99.90;;;;;;5035814;28;20132;-57
2021/07/08 11:08:57;;;;;;;2.58;2.38;;;21.70;99.90;;;;;;5035728;28;20022;-57
2021/07/08 11:11:22;;;;;;;5.25;2.58;;;21.70;99.90;;;;;;5034633;28;20419;-56
2021/07/08 11:13:58;;;;;;;3.65;2.95;;;21.60;99.90;;;;;;5035308;28;20047;-53
2021/07/08 11:16:45;;;;;;;5.35;3.00;;;21.60;99.90;;;;;;5035567;28;20083;-58
2021/07/08 11:19:16;;;;;;;2.78;2.53;;;21.60;99.90;;;;;;5035386;28;20116;-54
2021/07/08 11:22:09;;;;;;;2.78;2.58;;;21.60;99.90;;;;;;5035401;28;20412;-56
2021/07/08 11:24:44;;;;;;;3.63;2.40;;;21.70;99.90;;;;;;5035603;28;20025;-58
2021/07/08 11:27:13;;;;;;;4.70;2.40;;;21.80;99.90;;;;;;5035352;28;20550;-55
2021/07/08 11:29:48;;;;;;;2.42;1.95;;;21.90;99.90;;;;;;5035501;28;20029;-56
2021/07/08 11:32:21;;;;;;;2.20;2.00;;;21.90;99.90;;;;;;5034967;28;20388;-57
2021/07/08 11:34:51;;;;;;;2.65;1.90;;;22.00;99.90;;;;;;5035330;28;20182;-56
2021/07/08 11:37:22;;;;;;;3.10;2.30;;;22.10;99.90;;;;;;5035096;28;20100;-56
2021/07/08 11:39:57;;;;;;;2.15;1.88;;;22.30;99.90;;;;;;5034227;28;20017;-55
2021/07/08 11:42:24;;;;;;;3.00;1.80;;;22.20;99.90;;;;;;5035271;28;20033;-57
2021/07/08 11:44:52;;;;;;;2.13;1.70;;;22.40;99.90;;;;;;5035038;28;20036;-56
2021/07/08 11:47:20;;;;;;;2.35;1.90;;;22.50;99.90;;;;;;5034999;28;20064;-55
2021/07/08 11:49:48;;;;;;;3.22;1.98;;;22.60;99.90;;;;;;5034964;28;20041;-57
2021/07/08 11:52:26;;;;;;;2.10;1.90;;;22.70;99.90;;;;;;5034850;28;20392;-57
2021/07/08 11:54:59;;;;;;;2.28;1.63;;;22.80;99.90;;;;;;5034002;28;20018;-57
2021/07/08 11:57:27;;;;;;;1.77;1.67;;;22.80;99.90;;;;;;5034671;28;20033;-55
2021/07/08 11:59:53;;;;;;;1.70;1.60;;;22.80;99.90;;;;;;5034785;28;20511;-55
2021/07/08 12:02:36;;;;;;;1.52;1.42;;;22.80;99.90;;;;;;5030244;28;20053;-58
2021/07/08 12:05:18;;;;;;;3.58;1.70;;;22.80;99.90;;;;;;5034265;28;20029;-53
2021/07/08 12:07:54;;;;;;;3.03;1.75;;;22.90;99.90;;;;;;5034351;28;20052;-56
2021/07/08 12:10:26;;;;;;;1.52;1.42;;;23.00;99.90;;;;;;5033645;28;20032;-55
2021/07/08 12:12:55;;;;;;;1.85;1.30;;;23.20;99.90;;;;;;5033559;28;20026;-55
2021/07/08 12:15:21;;;;;;;3.03;1.88;;;23.30;99.90;;;;;;5034341;28;20033;-56
2021/07/08 12:17:57;;;;;;;2.97;1.60;;;23.40;99.90;;;;;;5034401;28;20037;-56
2021/07/08 12:20:22;;;;;;;1.77;1.50;;;23.50;99.90;;;;;;5034055;28;20101;-56
2021/07/08 12:23:02;;;;;;;1.42;1.27;;;23.50;99.90;;;;;;5034181;28;20113;-58
2021/07/08 12:25:28;;;;;;;6.03;1.80;;;23.50;99.90;;;;;;5033285;28;20060;-55
2021/07/08 12:27:56;;;;;;;4.28;1.60;;;23.50;99.90;;;;;;5034065;28;20609;-57
2021/07/08 12:30:23;;;;;;;1.58;1.40;;;23.40;99.90;;;;;;5030696;28;20112;-52
2021/07/08 12:33:10;;;;;;;1.52;1.42;;;23.20;99.90;;;;;;5033785;28;20045;-52
2021/07/08 12:35:38;;;;;;;2.50;1.40;;;23.10;99.90;;;;;;5033805;28;20009;-57
2021/07/08 12:38:05;;;;;;;2.00;1.23;;;23.00;99.90;;;;;;5033841;28;20093;-55
2021/07/08 12:40:31;;;;;;;1.63;1.30;;;22.90;99.90;;;;;;5032961;28;20140;-53
2021/07/08 12:43:04;;;;;;;1.27;1.17;;;23.00;99.90;;;;;;5033712;28;20112;-52
2021/07/08 12:45:29;;;;;;;2.45;1.60;;;23.00;99.90;;;;;;5033526;28;20035;-56
2021/07/08 12:47:55;;;;;;;2.40;1.38;;;23.10;99.90;;;;;;5033753;28;20030;-55
2021/07/08 12:50:27;;;;;;;6.13;1.63;;;23.20;99.90;;;;;;5033484;28;20033;-56
2021/07/08 12:52:55;;;;;;;1.70;1.60;;;23.30;99.90;;;;;;5033625;28;20033;-58
2021/07/08 12:55:34;;;;;;;3.55;1.67;;;23.50;99.90;;;;;;5032905;28;20063;-56
2021/07/08 12:58:21;;;;;;;1.92;1.55;;;23.60;99.90;;;;;;5032192;28;20112;-55